| time (UTC) | temp C | wind direction | speed KPH | gust KPH | rain 1hr cm | rain 24hr cm | rain mn cm | humidity % | barometer mb |
| 20260503033038 | 24 | 232 | 0.0 | 1.6 | 0.00 | 0.00 | 0.00 | 84 | 1014.6 |
| 20260503031512 | 24 | 232 | 0.0 | 1.6 | 0.00 | 0.00 | 0.00 | 83 | 1014.5 |
| 20260503030024 | 24 | 259 | 0.0 | 1.6 | 0.00 | 0.00 | 0.00 | 83 | 1014.4 |
| 20260503024523 | 24 | 258 | 0.0 | 1.6 | 0.00 | 0.00 | 0.00 | 81 | 1014.6 |
| 20260503023040 | 25 | 258 | 0.0 | 0.0 | 0.00 | 0.00 | 0.00 | 80 | 1014.4 |
| 20260503021509 | 25 | 258 | 0.0 | 0.0 | 0.00 | 0.00 | 0.00 | 78 | 1014.5 |
| 20260503020016 | 25 | 256 | 0.0 | 1.6 | 0.00 | 0.00 | 0.00 | 77 | 1014.2 |
| 20260503014520 | 25 | 286 | 0.0 | 1.6 | 0.00 | 0.00 | 0.00 | 75 | 1014.4 |
| 20260503013022 | 26 | 266 | 0.0 | 1.6 | 0.00 | 0.00 | 0.00 | 74 | 1014.2 |
| 20260503011522 | 26 | 269 | 0.0 | 3.2 | 0.00 | 0.00 | 0.00 | 72 | 1014.1 |
| 20260503010014 | 26 | 273 | 0.0 | 3.2 | 0.00 | 0.00 | 0.00 | 71 | 1013.7 |
| 20260503004515 | 26 | 267 | 1.6 | 6.4 | 0.00 | 0.00 | 0.00 | 69 | 1013.5 |
| 20260503003022 | 27 | 285 | 0.0 | 6.4 | 0.00 | 0.00 | 0.00 | 67 | 1013.4 |
| 20260503001524 | 27 | 285 | 0.0 | 6.4 | 0.00 | 0.00 | 0.00 | 65 | 1013.3 |
| 20260503000026 | 28 | 298 | 0.0 | 6.4 | 0.00 | 0.00 | 0.00 | 62 | 1013.0 |
| 20260502234514 | 28 | 285 | 1.6 | 8.0 | 0.00 | 0.00 | 0.00 | 57 | 1012.7 |
| 20260502233016 | 29 | 268 | 1.6 | 8.0 | 0.00 | 0.00 | 0.00 | 52 | 1012.5 |
| 20260502231521 | 30 | 271 | 3.2 | 12.9 | 0.00 | 0.00 | 0.00 | 48 | 1012.1 |
| 20260502230025 | 31 | 302 | 3.2 | 14.5 | 0.00 | 0.00 | 0.00 | 46 | 1011.9 |
| 20260502224525 | 32 | 266 | 1.6 | 12.9 | 0.00 | 0.00 | 0.00 | 49 | 1011.7 |
| 20260502223011 | 32 | 249 | 1.6 | 12.9 | 0.00 | 0.00 | 0.00 | 47 | 1011.5 |
| 20260502221516 | 32 | 309 | 3.2 | 11.3 | 0.00 | 0.00 | 0.00 | 45 | 1011.7 |
| 20260502220019 | 32 | 212 | 1.6 | 11.3 | 0.00 | 0.00 | 0.00 | 44 | 1011.6 |
| 20260502214525 | 32 | 274 | 4.8 | 11.3 | 0.00 | 0.00 | 0.00 | 43 | 1011.5 |
| 20260502213029 | 33 | 269 | 6.4 | 16.1 | 0.00 | 0.00 | 0.00 | 43 | 1011.4 |
| 20260502211510 | 32 | 294 | 8.0 | 16.1 | 0.00 | 0.00 | 0.00 | 41 | 1011.1 |
| 20260502210010 | 32 | 300 | 8.0 | 19.3 | 0.00 | 0.00 | 0.00 | 41 | 1011.1 |
| 20260502204503 | 33 | 294 | 9.7 | 19.3 | 0.00 | 0.00 | 0.00 | 36 | 1011.0 |
| 20260502203015 | 33 | 148 | 3.2 | 14.5 | 0.00 | 0.00 | 0.00 | 40 | 1011.0 |
| 20260502201514 | 33 | 276 | 3.2 | 19.3 | 0.00 | 0.00 | 0.00 | 41 | 1011.1 |
| 20260502200012 | 33 | 264 | 4.8 | 16.1 | 0.00 | 0.00 | 0.00 | 42 | 1011.5 |
| 20260502193004 | 32 | 196 | 6.4 | 17.7 | 0.00 | 0.00 | 0.00 | 48 | 1011.8 |
| 20260502191513 | 32 | 217 | 6.4 | 17.7 | 0.00 | 0.00 | 0.00 | 49 | 1011.8 |
| 20260502190012 | 33 | 312 | 6.4 | 17.7 | 0.00 | 0.00 | 0.00 | 49 | 1012.0 |
| 20260502184526 | 33 | 304 | 6.4 | 17.7 | 0.00 | 0.00 | 0.00 | 46 | 1012.0 |
| 20260502181506 | 33 | 153 | 3.2 | 17.7 | 0.00 | 0.00 | 0.00 | 50 | 1012.2 |
| 20260502163020 | 32 | 214 | 4.8 | 14.5 | 0.00 | 0.00 | 0.00 | 59 | 1012.6 |
| 20260502151523 | 31 | 200 | 6.4 | 19.3 | 0.00 | 0.00 | 0.00 | 64 | 1013.0 |
| 20260502123027 | 27 | 141 | 1.6 | 8.0 | 0.00 | 0.00 | 0.00 | 80 | 1012.7 |
| 20260502121510 | 27 | 193 | 1.6 | 4.8 | 0.00 | 0.00 | 0.00 | 82 | 1012.5 |
| 20260502114519 | 25 | 158 | 0.0 | 4.8 | 0.00 | 0.00 | 0.00 | 88 | 1012.3 |
| 20260502113023 | 25 | 182 | 0.0 | 0.0 | 0.00 | 0.00 | 0.00 | 89 | 1012.6 |
| 20260502101523 | 24 | 216 | 0.0 | 1.6 | 0.00 | 0.00 | 0.00 | 90 | 1012.3 |
| 20260502091521 | 24 | 163 | 0.0 | 3.2 | 0.00 | 0.00 | 0.00 | 91 | 1012.3 |
| 20260502071517 | 21 | 224 | 0.0 | 0.0 | 0.00 | 0.00 | 0.00 | 92 | 1012.3 |
| 20260502070020 | 21 | 224 | 0.0 | 0.0 | 0.00 | 0.00 | 0.00 | 92 | 1012.4 |
| 20260502064524 | 21 | 224 | 0.0 | 0.0 | 0.00 | 0.00 | 0.00 | 92 | 1012.4 |
| 20260502063026 | 21 | 224 | 0.0 | 0.0 | 0.00 | 0.00 | 0.00 | 92 | 1012.5 |
| 20260502061515 | 21 | 224 | 0.0 | 0.0 | 0.00 | 0.00 | 0.00 | 91 | 1012.6 |
| 20260502060022 | 21 | 224 | 0.0 | 0.0 | 0.00 | 0.00 | 0.00 | 91 | 1012.6 |
| 20260502054506 | 21 | 224 | 0.0 | 0.0 | 0.00 | 0.00 | 0.00 | 91 | 1012.6 |
| 20260502053009 | 21 | 224 | 0.0 | 0.0 | 0.00 | 0.00 | 0.00 | 91 | 1012.6 |
| 20260502051510 | 21 | 224 | 0.0 | 0.0 | 0.00 | 0.00 | 0.00 | 90 | 1012.7 |
| 20260502050016 | 21 | 224 | 0.0 | 0.0 | 0.00 | 0.00 | 0.00 | 91 | 1012.9 |
| 20260502044518 | 21 | 224 | 0.0 | 0.0 | 0.00 | 0.00 | 0.00 | 90 | 1013.2 |
| 20260502043004 | 21 | 224 | 0.0 | 0.0 | 0.00 | 0.00 | 0.00 | 89 | 1013.3 |
| 20260502041516 | 22 | 224 | 0.0 | 1.6 | 0.00 | 0.00 | 0.00 | 89 | 1013.4 |
| 20260502040013 | 22 | 224 | 0.0 | 0.0 | 0.00 | 0.00 | 0.00 | 88 | 1013.3 |
| 20260502034518 | 22 | 224 | 0.0 | 0.0 | 0.00 | 0.00 | 0.00 | 87 | 1013.4 |